createdAt,value
2023-01-23T00:02:37.000Z,20.3
2023-01-23T00:06:05.000Z,19.7
2023-01-23T00:09:33.000Z,23.8
2023-01-23T00:13:01.000Z,23.6
2023-01-23T00:16:29.000Z,24.5
2023-01-23T00:19:19.000Z,21.1
2023-01-23T00:22:47.000Z,24
2023-01-23T00:26:15.000Z,24.2
2023-01-23T00:29:42.000Z,24.1
2023-01-23T00:33:11.000Z,25.5
2023-01-23T00:36:39.000Z,23.9
2023-01-23T00:40:07.000Z,24.5
2023-01-23T00:43:34.000Z,23.9
2023-01-23T00:47:02.000Z,23
2023-01-23T00:50:30.000Z,25.2
2023-01-23T00:53:58.000Z,25.6
2023-01-23T00:56:47.000Z,24.8
2023-01-23T01:00:15.000Z,22.8
2023-01-23T01:03:43.000Z,26.8
2023-01-23T01:07:11.000Z,23.8
2023-01-23T01:10:39.000Z,25.9
2023-01-23T01:14:07.000Z,25.3
2023-01-23T01:17:34.000Z,25.9
2023-01-23T01:21:02.000Z,23.9
2023-01-23T01:24:30.000Z,27.1
2023-01-23T01:27:58.000Z,25.2
2023-01-23T01:31:26.000Z,24.5
2023-01-23T01:34:16.000Z,27.1
2023-01-23T01:37:44.000Z,26.3
2023-01-23T01:41:12.000Z,23.4
2023-01-23T01:44:39.000Z,23.5
2023-01-23T01:48:07.000Z,24.5
2023-01-23T01:51:35.000Z,22.6
2023-01-23T01:55:03.000Z,23
2023-01-23T01:58:31.000Z,22.1
2023-01-23T02:01:59.000Z,22.2
2023-01-23T02:05:27.000Z,19.7
2023-01-23T02:08:55.000Z,19.6
2023-01-23T02:11:44.000Z,18.9
2023-01-23T02:15:12.000Z,19.1
2023-01-23T02:18:40.000Z,19.2
2023-01-23T02:22:08.000Z,16.8
2023-01-23T02:25:36.000Z,18.2
2023-01-23T02:29:04.000Z,18.8
2023-01-23T02:32:32.000Z,17
2023-01-23T02:36:00.000Z,17
2023-01-23T02:39:28.000Z,16.4
2023-01-23T02:42:56.000Z,14.8
2023-01-23T02:46:23.000Z,15.3
2023-01-23T02:49:13.000Z,15.6
2023-01-23T02:52:40.000Z,16.5
2023-01-23T02:56:08.000Z,15.8
2023-01-23T02:59:36.000Z,16.2
2023-01-23T03:03:05.000Z,16.7
2023-01-23T03:06:33.000Z,14.7
2023-01-23T03:10:01.000Z,14.1
2023-01-23T03:13:29.000Z,13
2023-01-23T03:16:57.000Z,14.4
2023-01-23T03:20:25.000Z,12.7
2023-01-23T03:23:53.000Z,12.6
2023-01-23T03:26:42.000Z,13.5
2023-01-23T03:30:10.000Z,12.7
2023-01-23T03:33:38.000Z,13.5
2023-01-23T03:37:06.000Z,12.4
2023-01-23T03:40:34.000Z,13.1
2023-01-23T03:44:02.000Z,11.5
2023-01-23T03:47:30.000Z,12.8
2023-01-23T03:50:58.000Z,12.2
2023-01-23T03:54:26.000Z,12.1
2023-01-23T03:57:54.000Z,11.1
2023-01-23T04:01:22.000Z,11.4
2023-01-23T04:04:11.000Z,11.4
2023-01-23T04:07:39.000Z,11.3
2023-01-23T04:11:07.000Z,10.7
2023-01-23T04:14:35.000Z,11.7
2023-01-23T04:18:03.000Z,10.6
2023-01-23T04:21:31.000Z,11.2
2023-01-23T04:24:59.000Z,12.7
2023-01-23T04:28:27.000Z,10.1
2023-01-23T04:31:55.000Z,11.4
2023-01-23T04:35:23.000Z,10.2
2023-01-23T04:38:51.000Z,10.5
2023-01-23T04:41:40.000Z,11.4
2023-01-23T04:45:08.000Z,10.6
2023-01-23T04:48:36.000Z,11.4
2023-01-23T04:52:04.000Z,12.3
2023-01-23T04:55:31.000Z,13.1
2023-01-23T04:58:59.000Z,13.1
2023-01-23T05:02:27.000Z,13.6
2023-01-23T05:05:55.000Z,13.9
2023-01-23T05:09:23.000Z,14.5
2023-01-23T05:12:51.000Z,15.5
2023-01-23T05:16:19.000Z,15.3
2023-01-23T05:19:09.000Z,16.8
2023-01-23T05:22:36.000Z,19.2
2023-01-23T05:26:04.000Z,16.2
2023-01-23T05:29:32.000Z,17.3
2023-01-23T05:33:01.000Z,16.8
2023-01-23T05:36:29.000Z,17.8
2023-01-23T05:39:57.000Z,17.4
2023-01-23T05:43:24.000Z,18.5
2023-01-23T05:46:52.000Z,17.2
2023-01-23T05:50:20.000Z,17.7
2023-01-23T05:53:48.000Z,19.3
2023-01-23T05:56:37.000Z,20.4
2023-01-23T06:00:05.000Z,38.2
2023-01-23T06:03:33.000Z,33.6
2023-01-23T06:07:01.000Z,26.3
2023-01-23T06:10:29.000Z,29.2
2023-01-23T06:13:57.000Z,21.6
2023-01-23T06:17:25.000Z,23
2023-01-23T06:20:53.000Z,22.3
2023-01-23T06:24:21.000Z,20.8
2023-01-23T06:27:49.000Z,21.3
2023-01-23T06:31:17.000Z,22.8
2023-01-23T06:34:06.000Z,22.1
2023-01-23T06:37:34.000Z,19.1
2023-01-23T06:41:02.000Z,19
2023-01-23T06:44:30.000Z,25.1
2023-01-23T06:47:58.000Z,20.4
2023-01-23T06:51:26.000Z,21.9
2023-01-23T06:54:54.000Z,20.8
2023-01-23T06:58:22.000Z,22.1
2023-01-23T07:01:50.000Z,20.5
2023-01-23T07:05:18.000Z,20.6
2023-01-23T07:08:46.000Z,20.7
2023-01-23T07:11:35.000Z,20.4
2023-01-23T07:15:03.000Z,21.2
2023-01-23T07:18:31.000Z,21.3
2023-01-23T07:21:59.000Z,20.8
2023-01-23T07:25:27.000Z,17
2023-01-23T07:28:55.000Z,19
2023-01-23T07:32:23.000Z,19.6
2023-01-23T07:35:51.000Z,19.2
2023-01-23T07:39:19.000Z,18.6
2023-01-23T07:42:47.000Z,21.3
2023-01-23T07:46:15.000Z,20.7
2023-01-23T07:49:04.000Z,19.1
2023-01-23T07:52:32.000Z,19.8
2023-01-23T07:56:00.000Z,19.9
2023-01-23T07:59:28.000Z,18.9
2023-01-23T08:02:56.000Z,21
2023-01-23T08:06:24.000Z,21.1
2023-01-23T08:10:09.000Z,20
2023-01-23T08:13:37.000Z,19.9
2023-01-23T08:17:05.000Z,23.9
2023-01-23T08:20:33.000Z,23.4
2023-01-23T08:24:02.000Z,15.9
2023-01-23T08:26:53.000Z,21.7
2023-01-23T08:30:22.000Z,11.9
2023-01-23T08:33:51.000Z,21.1
2023-01-23T08:37:19.000Z,20.1
2023-01-23T08:42:56.000Z,19.3
2023-01-23T08:46:27.000Z,18.7
2023-01-23T08:50:00.000Z,21.7
2023-01-23T08:53:31.000Z,19.4
2023-01-23T08:57:03.000Z,19
2023-01-23T09:00:35.000Z,22.7
2023-01-23T09:04:08.000Z,20.4
2023-01-23T09:06:53.000Z,20.2
2023-01-23T09:10:24.000Z,23.6
2023-01-23T09:13:57.000Z,21.8
2023-01-23T09:17:29.000Z,24.9
2023-01-23T09:21:02.000Z,22
2023-01-23T09:24:35.000Z,21
2023-01-23T09:28:07.000Z,22.8
2023-01-23T09:31:40.000Z,23
2023-01-23T09:35:13.000Z,21.2
2023-01-23T09:38:45.000Z,21.6
2023-01-23T09:42:19.000Z,22.6
2023-01-23T09:45:10.000Z,21.6
2023-01-23T09:48:42.000Z,19.2
2023-01-23T09:52:15.000Z,22.2
2023-01-23T09:55:48.000Z,20.1
2023-01-23T09:59:23.000Z,21.6
2023-01-23T10:02:55.000Z,21.1
2023-01-23T10:06:28.000Z,22.4
2023-01-23T10:10:01.000Z,21.2
2023-01-23T10:13:33.000Z,20.6
2023-01-23T10:17:06.000Z,18.6
2023-01-23T10:20:39.000Z,21.6
2023-01-23T10:23:30.000Z,21.7
2023-01-23T10:27:02.000Z,20.1
2023-01-23T10:30:35.000Z,20.6
2023-01-23T10:34:08.000Z,18.5
2023-01-23T10:37:40.000Z,20.4
2023-01-23T10:41:13.000Z,24.5
2023-01-23T10:44:48.000Z,23.3
2023-01-23T10:48:21.000Z,21.8
2023-01-23T10:51:54.000Z,21.1
2023-01-23T10:55:26.000Z,21
2023-01-23T10:58:59.000Z,21.8
2023-01-23T11:01:50.000Z,21.2
2023-01-23T11:05:23.000Z,25.9
2023-01-23T11:08:57.000Z,19.5
2023-01-23T11:12:29.000Z,20.1
2023-01-23T11:16:02.000Z,18.4
2023-01-23T11:19:35.000Z,19.9
2023-01-23T11:23:07.000Z,19.9
2023-01-23T11:26:40.000Z,18.6
2023-01-23T11:30:13.000Z,18.6
2023-01-23T11:33:46.000Z,18.4
2023-01-23T11:37:19.000Z,20.5
2023-01-23T11:40:10.000Z,21.9
2023-01-23T11:43:43.000Z,18.2
2023-01-23T11:47:15.000Z,21.4
2023-01-23T11:50:48.000Z,19.1
2023-01-23T11:54:21.000Z,19.9
2023-01-23T11:57:54.000Z,19.9
2023-01-23T12:01:26.000Z,22.5
2023-01-23T12:04:59.000Z,20.4
2023-01-23T12:08:32.000Z,19.7
2023-01-23T12:12:04.000Z,19.8
2023-01-23T12:15:37.000Z,23.2
2023-01-23T12:18:28.000Z,21.9
2023-01-23T12:22:03.000Z,23.8
2023-01-23T12:25:37.000Z,22.5
2023-01-23T12:29:09.000Z,23.6
2023-01-23T12:32:42.000Z,24.9
2023-01-23T12:36:15.000Z,25.6
2023-01-23T12:39:47.000Z,24.8
2023-01-23T12:43:20.000Z,24.6
2023-01-23T12:46:56.000Z,23.8
2023-01-23T12:50:28.000Z,23.2
2023-01-23T12:54:01.000Z,26.3
2023-01-23T12:56:52.000Z,27.2
2023-01-23T13:00:25.000Z,23.7
2023-01-23T13:03:58.000Z,24.1
2023-01-23T13:07:31.000Z,24.1
2023-01-23T13:11:16.000Z,23.7
2023-01-23T13:14:48.000Z,26
2023-01-23T13:18:40.000Z,22.6
2023-01-23T13:22:12.000Z,22.4
2023-01-23T13:25:54.000Z,22
2023-01-23T13:29:27.000Z,25.6
2023-01-23T13:33:00.000Z,23.6
2023-01-23T13:35:51.000Z,23.5
2023-01-23T13:39:23.000Z,22.7
2023-01-23T13:42:56.000Z,22.5
2023-01-23T14:23:01.000Z,16.8
2023-01-23T14:26:33.000Z,18.9
2023-01-23T14:30:06.000Z,20.9
2023-01-23T14:33:39.000Z,28.2
2023-01-23T14:37:12.000Z,27.9
2023-01-23T14:40:44.000Z,24.6
2023-01-23T14:44:22.000Z,21.6
2023-01-23T14:47:13.000Z,20.9
2023-01-23T14:50:45.000Z,19.8
2023-01-23T14:54:18.000Z,23.5
2023-01-23T14:57:57.000Z,17.8
2023-01-23T15:01:30.000Z,25.1
2023-01-23T15:05:03.000Z,22.8
2023-01-23T15:08:36.000Z,22.9
2023-01-23T15:12:08.000Z,28.6
2023-01-23T15:15:41.000Z,31.2
2023-01-23T15:19:14.000Z,26
2023-01-23T15:22:46.000Z,30.7
2023-01-23T15:25:38.000Z,29.5
2023-01-23T15:29:22.000Z,27
2023-01-23T15:32:55.000Z,29.5
2023-01-23T15:36:27.000Z,28.6
2023-01-23T15:40:00.000Z,26.3
2023-01-23T15:43:33.000Z,27.4
2023-01-23T15:47:06.000Z,26
2023-01-23T15:50:39.000Z,34.6
2023-01-23T15:54:11.000Z,35
2023-01-23T15:57:44.000Z,35.2
2023-01-23T16:01:17.000Z,29.9
2023-01-23T16:04:08.000Z,29.6
2023-01-23T16:07:41.000Z,32.7
2023-01-23T16:11:13.000Z,29.3
2023-01-23T16:14:46.000Z,27.5
2023-01-23T16:18:19.000Z,25.4
2023-01-23T16:21:51.000Z,29.7
2023-01-23T16:25:45.000Z,33.4
2023-01-23T16:29:18.000Z,33.9
2023-01-23T16:32:51.000Z,32.1
2023-01-23T16:36:24.000Z,31.9
2023-01-23T16:39:56.000Z,32.7
2023-01-23T16:42:47.000Z,33.6
2023-01-23T16:46:20.000Z,30.8
2023-01-23T16:49:53.000Z,33
2023-01-23T16:53:25.000Z,38.1
2023-01-23T16:56:58.000Z,33.5
2023-01-23T17:00:30.000Z,30.4
2023-01-23T17:04:03.000Z,28.2
2023-01-23T17:07:36.000Z,25.1
2023-01-23T17:11:09.000Z,28.2
2023-01-23T17:14:41.000Z,29.9
2023-01-23T17:18:26.000Z,30.2
2023-01-23T17:21:17.000Z,31.1
2023-01-23T17:24:50.000Z,30.7
2023-01-23T17:28:23.000Z,38.9
2023-01-23T17:31:55.000Z,32.8
2023-01-23T17:35:28.000Z,34.1
2023-01-23T17:39:00.000Z,34.5
2023-01-23T17:42:33.000Z,28.5
2023-01-23T17:46:06.000Z,29.7
2023-01-23T17:49:38.000Z,30.6
2023-01-23T17:53:11.000Z,29.3
2023-01-23T17:56:44.000Z,31.2
2023-01-23T17:59:35.000Z,29.9
2023-01-23T18:03:08.000Z,27.8
2023-01-23T18:06:40.000Z,26.3
2023-01-23T18:10:13.000Z,29.4
2023-01-23T18:13:48.000Z,13
2023-01-23T18:17:21.000Z,27.1
2023-01-23T18:20:53.000Z,29.7
2023-01-23T18:24:26.000Z,31.3
2023-01-23T18:27:59.000Z,25.2
2023-01-23T18:31:32.000Z,30.9
2023-01-23T18:35:05.000Z,28.7
2023-01-23T18:37:56.000Z,28.4
2023-01-23T18:41:28.000Z,28.8
2023-01-23T18:45:01.000Z,26.8
2023-01-23T18:48:34.000Z,25.8
2023-01-23T18:52:06.000Z,29.5
2023-01-23T18:55:39.000Z,27
2023-01-23T18:59:11.000Z,31.5
2023-01-23T19:02:44.000Z,26.8
2023-01-23T19:06:17.000Z,26.5
2023-01-23T19:09:49.000Z,26.5
2023-01-23T19:13:22.000Z,29.6
2023-01-23T19:16:13.000Z,28.7
2023-01-23T19:19:46.000Z,22.4
2023-01-23T19:23:18.000Z,28.3
2023-01-23T19:26:51.000Z,18.7
2023-01-23T19:30:23.000Z,25.2
2023-01-23T19:34:04.000Z,25.8
2023-01-23T19:37:37.000Z,39
2023-01-23T19:41:10.000Z,27.6
2023-01-23T19:45:00.000Z,28.2
2023-01-23T19:48:32.000Z,25.3
2023-01-23T19:52:05.000Z,25.6
2023-01-23T19:54:56.000Z,24.4
2023-01-23T19:58:29.000Z,26.5
2023-01-23T20:02:02.000Z,21.9
2023-01-23T20:05:34.000Z,26.6
2023-01-23T20:09:07.000Z,27.6
2023-01-23T20:12:40.000Z,27.8
2023-01-23T20:16:12.000Z,24
2023-01-23T20:19:45.000Z,23.8
2023-01-23T20:23:18.000Z,28.9
2023-01-23T20:26:51.000Z,16.1
2023-01-23T20:30:23.000Z,29.3
2023-01-23T20:33:16.000Z,29.7
2023-01-23T20:36:49.000Z,23.6
2023-01-23T20:40:22.000Z,27.2
2023-01-23T20:43:54.000Z,25.3
2023-01-23T20:47:27.000Z,26.3
2023-01-23T20:51:00.000Z,23.8
2023-01-23T20:54:35.000Z,26.5
2023-01-23T20:58:07.000Z,25.5
2023-01-23T21:01:40.000Z,25.5
2023-01-23T21:05:13.000Z,26.5
2023-01-23T21:08:46.000Z,26.6
2023-01-23T21:11:38.000Z,29.7
2023-01-23T21:15:11.000Z,27.6
2023-01-23T21:18:44.000Z,29.5
2023-01-23T21:22:16.000Z,26
2023-01-23T21:25:49.000Z,25.2
2023-01-23T21:29:24.000Z,28.1
2023-01-23T21:32:57.000Z,28.5
2023-01-23T21:36:30.000Z,27.8
2023-01-23T21:40:02.000Z,25.7
2023-01-23T21:43:35.000Z,27.8
2023-01-23T21:47:08.000Z,26.8
2023-01-23T21:49:59.000Z,30.9
2023-01-23T21:53:31.000Z,27.9
2023-01-23T21:57:04.000Z,25.8
2023-01-23T22:00:37.000Z,31.7
2023-01-23T22:04:09.000Z,28.9
2023-01-23T22:07:42.000Z,28
2023-01-23T22:11:14.000Z,30.5
2023-01-23T22:14:47.000Z,31.5
2023-01-23T22:18:39.000Z,25.1
2023-01-23T22:22:11.000Z,28.1
2023-01-23T22:25:44.000Z,29.4
2023-01-23T22:28:35.000Z,30.7
2023-01-23T22:32:08.000Z,27.3
2023-01-23T22:35:41.000Z,28.5
2023-01-23T22:39:13.000Z,30
2023-01-23T22:42:46.000Z,29.8
2023-01-23T22:46:18.000Z,32.3
2023-01-23T22:49:51.000Z,28.5
2023-01-23T22:53:24.000Z,30.1
2023-01-23T22:56:57.000Z,31.1
2023-01-23T23:00:29.000Z,30.9
2023-01-23T23:04:02.000Z,28.5
2023-01-23T23:06:53.000Z,27.9
2023-01-23T23:10:26.000Z,30.7
2023-01-23T23:13:58.000Z,28.1
2023-01-23T23:17:31.000Z,58.1
2023-01-23T23:21:04.000Z,32.7
2023-01-23T23:24:36.000Z,30.1
2023-01-23T23:28:09.000Z,29.9
2023-01-23T23:31:42.000Z,29.8
2023-01-23T23:35:15.000Z,30.7
2023-01-23T23:38:48.000Z,27.9
2023-01-23T23:42:21.000Z,27.5
2023-01-23T23:45:12.000Z,32.9
2023-01-23T23:48:45.000Z,27.4
2023-01-23T23:52:18.000Z,31.5
2023-01-23T23:55:50.000Z,25.3
2023-01-23T23:59:23.000Z,30
